createdAt,value
2018-06-22T00:00:34.600Z,15.08
2018-06-22T00:01:40.562Z,15.06
2018-06-22T00:02:46.798Z,15.09
2018-06-22T00:03:52.758Z,15.11
2018-06-22T00:04:58.739Z,15.09
2018-06-22T00:06:04.746Z,15.09
2018-06-22T00:07:10.695Z,15.09
2018-06-22T00:08:16.698Z,15.12
2018-06-22T00:09:22.646Z,15.13
2018-06-22T00:10:28.586Z,15.10
2018-06-22T00:11:34.547Z,15.06
2018-06-22T00:12:40.507Z,15.02
2018-06-22T00:13:46.471Z,15.00
2018-06-22T00:14:52.086Z,14.92
2018-06-22T00:15:58.161Z,14.85
2018-06-22T00:17:04.113Z,14.80
2018-06-22T00:18:09.736Z,14.74
2018-06-22T00:19:15.625Z,14.72
2018-06-22T00:20:21.852Z,14.69
2018-06-22T00:21:27.778Z,14.63
2018-06-22T00:22:33.737Z,14.61
2018-06-22T00:23:39.682Z,14.59
2018-06-22T00:24:45.892Z,14.58
2018-06-22T00:25:51.856Z,14.52
2018-06-22T00:26:57.819Z,14.47
2018-06-22T00:28:03.440Z,14.53
2018-06-22T00:29:09.330Z,14.53
2018-06-22T00:30:15.351Z,14.49
2018-06-22T00:31:21.306Z,14.50
2018-06-22T00:32:26.942Z,14.48
2018-06-22T00:33:32.839Z,14.44
2018-06-22T00:34:38.819Z,14.41
2018-06-22T00:35:44.787Z,14.39
2018-06-22T00:36:50.760Z,14.34
2018-06-22T00:37:57.211Z,14.27
2018-06-22T00:39:03.443Z,14.21
2018-06-22T00:40:09.435Z,14.17
2018-06-22T00:41:15.439Z,14.14
2018-06-22T00:42:21.245Z,14.09
2018-06-22T00:43:27.119Z,14.05
2018-06-22T00:44:33.071Z,14.04
2018-06-22T00:45:39.077Z,14.01
2018-06-22T00:46:45.082Z,13.99
2018-06-22T00:47:51.060Z,13.96
2018-06-22T00:48:57.310Z,13.94
2018-06-22T00:50:03.270Z,13.94
2018-06-22T00:51:09.288Z,13.95
2018-06-22T00:52:15.311Z,13.94
2018-06-22T00:53:38.114Z,13.92
2018-06-22T00:54:43.797Z,13.83
2018-06-22T00:55:49.719Z,13.82
2018-06-22T00:56:55.715Z,13.79
2018-06-22T00:58:01.733Z,13.75
2018-06-22T00:59:07.713Z,13.71
2018-06-22T01:00:13.697Z,13.67
2018-06-22T01:01:19.995Z,13.62
2018-06-22T01:02:26.030Z,13.56
2018-06-22T01:03:32.098Z,13.54
2018-06-22T01:04:38.091Z,13.52
2018-06-22T01:05:44.086Z,13.50
2018-06-22T01:06:50.117Z,13.47
2018-06-22T01:07:56.211Z,13.46
2018-06-22T01:09:02.271Z,13.43
2018-06-22T01:10:08.265Z,13.39
2018-06-22T01:11:14.374Z,13.34
2018-06-22T01:12:20.331Z,13.28
2018-06-22T01:13:26.286Z,13.26
2018-06-22T01:14:32.260Z,13.26
2018-06-22T01:15:38.379Z,13.26
2018-06-22T01:16:44.409Z,13.27
2018-06-22T01:17:50.347Z,13.23
2018-06-22T01:18:56.480Z,13.22
2018-06-22T01:20:02.699Z,13.18
2018-06-22T01:21:08.687Z,13.14
2018-06-22T01:22:14.724Z,13.13
2018-06-22T01:23:20.871Z,13.11
2018-06-22T01:24:26.883Z,13.09
2018-06-22T01:25:32.960Z,13.08
2018-06-22T01:26:38.954Z,13.09
2018-06-22T01:27:44.923Z,13.09
2018-06-22T01:28:50.983Z,13.09
2018-06-22T01:29:56.999Z,13.12
2018-06-22T01:31:02.996Z,13.14
2018-06-22T01:32:08.953Z,13.17
2018-06-22T01:33:14.924Z,13.18
2018-06-22T01:34:20.895Z,13.24
2018-06-22T01:35:26.838Z,13.29
2018-06-22T01:36:32.827Z,13.28
2018-06-22T01:37:38.764Z,13.26
2018-06-22T01:38:44.743Z,13.28
2018-06-22T01:39:50.699Z,13.32
2018-06-22T01:40:56.660Z,13.33
2018-06-22T01:42:02.637Z,13.38
2018-06-22T01:43:08.639Z,13.42
2018-06-22T01:44:14.591Z,13.38
2018-06-22T01:45:20.600Z,13.36
2018-06-22T01:46:26.587Z,13.41
2018-06-22T01:47:32.574Z,13.38
2018-06-22T01:48:38.535Z,13.40
2018-06-22T01:49:44.474Z,13.41
2018-06-22T01:50:50.459Z,13.43
2018-06-22T01:51:56.435Z,13.47
2018-06-22T01:53:02.434Z,13.50
2018-06-22T01:54:08.450Z,13.49
2018-06-22T01:55:14.430Z,13.50
2018-06-22T01:56:20.498Z,13.52
2018-06-22T01:57:26.455Z,13.52
2018-06-22T01:58:32.488Z,13.50
2018-06-22T01:59:38.495Z,13.52
2018-06-22T02:00:44.475Z,13.51
2018-06-22T02:01:50.447Z,13.53
2018-06-22T02:02:56.437Z,13.52
2018-06-22T02:04:02.425Z,13.53
2018-06-22T02:05:08.466Z,13.54
2018-06-22T02:06:14.466Z,13.52
2018-06-22T02:07:20.487Z,13.55
2018-06-22T02:08:26.446Z,13.51
2018-06-22T02:09:32.435Z,13.53
2018-06-22T02:10:38.682Z,13.54
2018-06-22T02:11:44.659Z,13.49
2018-06-22T02:12:50.827Z,13.55
2018-06-22T02:13:56.762Z,13.59
2018-06-22T02:15:02.774Z,13.61
2018-06-22T02:16:08.778Z,13.63
2018-06-22T02:17:14.800Z,13.60
2018-06-22T02:18:20.815Z,13.58
2018-06-22T02:19:26.774Z,13.59
2018-06-22T02:20:32.771Z,13.58
2018-06-22T02:21:38.983Z,13.55
2018-06-22T02:22:45.020Z,13.57
2018-06-22T02:23:50.997Z,13.52
2018-06-22T02:24:56.989Z,13.52
2018-06-22T02:26:02.990Z,13.54
2018-06-22T02:27:08.976Z,13.54
2018-06-22T02:28:14.984Z,13.59
2018-06-22T02:29:20.954Z,13.64
2018-06-22T02:30:26.953Z,13.58
2018-06-22T02:31:34.425Z,13.60
2018-06-22T02:32:40.408Z,13.63
2018-06-22T02:33:46.757Z,13.64
2018-06-22T02:34:52.695Z,13.63
2018-06-22T02:35:58.666Z,13.64
2018-06-22T02:37:04.678Z,13.65
2018-06-22T02:38:10.657Z,13.65
2018-06-22T02:39:16.633Z,13.61
2018-06-22T02:40:22.581Z,13.64
2018-06-22T02:41:28.546Z,13.63
2018-06-22T02:42:34.543Z,13.59
2018-06-22T02:43:40.498Z,13.56
2018-06-22T02:44:46.483Z,13.59
2018-06-22T02:45:52.476Z,13.61
2018-06-22T02:46:58.435Z,13.63
2018-06-22T02:48:04.457Z,13.63
2018-06-22T02:49:10.455Z,13.69
2018-06-22T02:50:16.432Z,13.74
2018-06-22T02:51:22.401Z,13.75
2018-06-22T02:52:28.375Z,13.74
2018-06-22T02:53:34.376Z,13.74
2018-06-22T02:54:40.345Z,13.70
2018-06-22T02:55:46.616Z,13.69
2018-06-22T02:56:52.592Z,13.68
2018-06-22T02:57:58.589Z,13.68
2018-06-22T02:59:04.569Z,13.71
2018-06-22T03:00:10.567Z,13.65
2018-06-22T03:01:16.533Z,13.65
2018-06-22T03:02:22.545Z,13.66
2018-06-22T03:03:28.508Z,13.69
2018-06-22T03:04:34.511Z,13.71
2018-06-22T03:05:40.476Z,13.74
2018-06-22T03:06:46.454Z,13.71
2018-06-22T03:07:52.726Z,13.70
2018-06-22T03:08:58.708Z,13.66
2018-06-22T03:10:05.624Z,13.66
2018-06-22T03:11:11.663Z,13.65
2018-06-22T03:12:17.624Z,13.66
2018-06-22T03:13:23.567Z,13.70
2018-06-22T03:14:29.487Z,13.74
2018-06-22T03:15:35.465Z,13.74
2018-06-22T03:16:41.444Z,13.74
2018-06-22T03:17:47.377Z,13.74
2018-06-22T03:18:53.341Z,13.83
2018-06-22T03:19:59.604Z,13.82
2018-06-22T03:21:05.587Z,13.83
2018-06-22T03:22:11.554Z,13.80
2018-06-22T03:23:17.540Z,13.75
2018-06-22T03:24:23.930Z,13.71
2018-06-22T03:25:29.904Z,13.69
2018-06-22T03:26:35.944Z,13.70
2018-06-22T03:27:41.906Z,13.74
2018-06-22T03:28:47.883Z,13.76
2018-06-22T03:29:53.831Z,13.76
2018-06-22T03:30:59.779Z,13.78
2018-06-22T03:32:05.891Z,13.74
2018-06-22T03:33:12.110Z,13.78
2018-06-22T03:34:18.106Z,13.79
2018-06-22T03:35:24.295Z,13.79
2018-06-22T03:36:30.254Z,13.79
2018-06-22T03:37:36.287Z,13.80
2018-06-22T03:38:42.276Z,13.80
2018-06-22T03:39:48.403Z,13.83
2018-06-22T03:40:54.371Z,13.88
2018-06-22T03:42:00.317Z,13.85
2018-06-22T03:43:06.338Z,13.87
2018-06-22T03:44:12.332Z,13.86
2018-06-22T03:45:18.286Z,13.89
2018-06-22T03:46:24.268Z,13.92
2018-06-22T03:47:30.211Z,13.88
2018-06-22T03:48:36.351Z,13.87
2018-06-22T03:49:43.170Z,13.91
2018-06-22T03:50:50.056Z,13.87
2018-06-22T03:51:56.029Z,13.86
2018-06-22T03:53:02.019Z,13.83
2018-06-22T03:54:08.053Z,13.83
2018-06-22T03:55:14.465Z,13.84
2018-06-22T03:56:20.596Z,13.86
2018-06-22T03:57:26.906Z,13.86
2018-06-22T03:58:32.863Z,13.85
2018-06-22T03:59:38.850Z,13.84
2018-06-22T04:00:44.820Z,13.90
2018-06-22T04:01:50.794Z,13.89
2018-06-22T04:02:56.871Z,13.92
2018-06-22T04:04:02.827Z,13.95
2018-06-22T04:05:08.866Z,13.98
2018-06-22T04:06:14.835Z,14.00
2018-06-22T04:07:20.813Z,13.94
2018-06-22T04:08:26.775Z,13.93
2018-06-22T04:09:32.749Z,13.94
2018-06-22T04:10:38.719Z,13.97
2018-06-22T04:11:44.696Z,14.00
2018-06-22T04:12:50.483Z,14.05
2018-06-22T04:13:56.429Z,14.05
2018-06-22T04:15:02.381Z,14.01
2018-06-22T04:16:08.399Z,14.02
2018-06-22T04:17:14.711Z,14.06
2018-06-22T04:18:20.682Z,14.15
2018-06-22T04:19:26.654Z,14.20
2018-06-22T04:20:32.639Z,14.20
2018-06-22T04:21:38.662Z,14.15
2018-06-22T04:22:44.637Z,14.12
2018-06-22T04:23:50.603Z,14.09
2018-06-22T04:24:56.631Z,14.11
2018-06-22T04:26:02.579Z,14.11
2018-06-22T04:27:08.599Z,14.14
2018-06-22T04:28:14.599Z,14.14
2018-06-22T04:29:20.619Z,14.20
2018-06-22T04:30:26.591Z,14.25
2018-06-22T04:31:32.577Z,14.26
2018-06-22T04:32:38.632Z,14.23
2018-06-22T04:33:44.834Z,14.20
2018-06-22T04:34:51.042Z,14.19
2018-06-22T04:35:57.023Z,14.16
2018-06-22T04:37:03.032Z,14.12
2018-06-22T04:38:09.046Z,14.14
2018-06-22T04:39:15.060Z,14.12
2018-06-22T04:40:21.043Z,14.09
2018-06-22T04:41:27.039Z,14.07
2018-06-22T04:42:33.088Z,14.09
2018-06-22T04:43:39.100Z,14.12
2018-06-22T04:44:45.851Z,14.12
2018-06-22T04:45:51.820Z,14.23
2018-06-22T04:46:57.846Z,14.29
2018-06-22T04:48:04.033Z,14.31
2018-06-22T04:49:09.999Z,14.29
2018-06-22T04:50:15.980Z,14.25
2018-06-22T04:51:22.022Z,14.31
2018-06-22T04:52:28.066Z,14.35
2018-06-22T04:53:34.060Z,14.35
2018-06-22T04:54:40.014Z,14.36
2018-06-22T04:55:46.463Z,14.37
2018-06-22T04:56:52.417Z,14.37
2018-06-22T04:57:58.409Z,14.35
2018-06-22T04:59:04.375Z,14.38
2018-06-22T05:00:10.370Z,14.45
2018-06-22T05:01:16.536Z,14.47
2018-06-22T05:02:22.588Z,14.51
2018-06-22T05:03:28.583Z,14.55
2018-06-22T05:04:34.555Z,14.60
2018-06-22T05:05:40.964Z,14.70
2018-06-22T05:06:46.752Z,14.70
2018-06-22T05:07:52.734Z,14.77
2018-06-22T05:08:58.699Z,14.87
2018-06-22T05:10:04.938Z,14.98
2018-06-22T05:11:10.943Z,15.14
2018-06-22T05:12:16.966Z,15.29
2018-06-22T05:13:23.180Z,15.40
2018-06-22T05:14:29.352Z,15.45
2018-06-22T05:15:35.322Z,15.46
2018-06-22T05:16:41.558Z,15.41
2018-06-22T05:17:47.516Z,15.40
2018-06-22T05:18:53.528Z,15.41
2018-06-22T05:19:59.530Z,15.42
2018-06-22T05:21:05.800Z,15.49
2018-06-22T05:22:11.878Z,15.46
2018-06-22T05:23:17.911Z,15.45
2018-06-22T05:24:23.896Z,15.39
2018-06-22T05:25:29.884Z,15.37
2018-06-22T05:26:35.742Z,15.39
2018-06-22T05:27:41.751Z,15.35
2018-06-22T05:28:47.828Z,15.29
2018-06-22T05:29:53.771Z,15.20
2018-06-22T05:30:59.990Z,15.14
2018-06-22T05:32:05.947Z,15.09
2018-06-22T05:33:11.939Z,15.03
2018-06-22T05:34:18.027Z,15.03
2018-06-22T05:35:23.995Z,15.03
2018-06-22T05:36:30.007Z,15.02
2018-06-22T05:37:35.822Z,15.00
2018-06-22T05:38:41.842Z,15.01
2018-06-22T05:39:47.882Z,15.04
2018-06-22T05:40:53.839Z,15.07
2018-06-22T05:42:00.067Z,15.09
2018-06-22T05:43:06.096Z,15.11
2018-06-22T05:44:12.192Z,15.13
2018-06-22T05:45:18.161Z,15.14
2018-06-22T05:46:24.112Z,15.09
2018-06-22T05:47:30.096Z,15.03
2018-06-22T05:48:36.054Z,14.94
2018-06-22T05:49:42.041Z,14.94
2018-06-22T05:50:48.070Z,14.94
2018-06-22T05:51:54.190Z,14.98
2018-06-22T05:53:00.137Z,15.05
2018-06-22T05:54:06.080Z,15.09
2018-06-22T05:55:12.039Z,15.12
2018-06-22T05:56:17.960Z,15.07
2018-06-22T05:57:23.883Z,15.06
2018-06-22T05:58:29.830Z,15.18
2018-06-22T05:59:36.126Z,15.20
2018-06-22T06:00:42.102Z,15.26
2018-06-22T06:01:48.080Z,15.31
2018-06-22T06:02:54.028Z,15.34
2018-06-22T06:03:59.967Z,15.32
2018-06-22T06:05:06.062Z,15.32
2018-06-22T06:06:12.166Z,15.28
2018-06-22T06:07:18.143Z,15.22
2018-06-22T06:08:24.088Z,15.23
2018-06-22T06:09:30.012Z,15.25
2018-06-22T06:10:35.941Z,15.24
2018-06-22T06:11:41.940Z,15.27
2018-06-22T06:12:47.920Z,15.35
2018-06-22T06:13:53.844Z,15.39
2018-06-22T06:14:59.799Z,15.42
2018-06-22T06:16:06.018Z,15.47
2018-06-22T06:17:12.015Z,15.48
2018-06-22T06:18:17.985Z,15.44
2018-06-22T06:19:23.942Z,15.46
2018-06-22T06:20:29.908Z,15.46
2018-06-22T06:21:36.063Z,15.52
2018-06-22T06:22:42.055Z,15.57
2018-06-22T06:23:47.988Z,15.63
2018-06-22T06:24:53.982Z,15.67
2018-06-22T06:26:00.005Z,15.73
2018-06-22T06:27:05.987Z,15.74
2018-06-22T06:28:11.948Z,15.79
2018-06-22T06:29:17.919Z,15.90
2018-06-22T06:30:23.911Z,15.94
2018-06-22T06:31:30.064Z,15.95
2018-06-22T06:32:36.089Z,15.99
2018-06-22T06:33:42.090Z,16.01
2018-06-22T06:34:48.030Z,16.02
2018-06-22T06:35:54.004Z,16.00
2018-06-22T06:37:00.154Z,15.93
2018-06-22T06:38:06.089Z,15.93
2018-06-22T06:39:12.039Z,15.91
2018-06-22T06:40:17.993Z,15.91
2018-06-22T06:41:23.938Z,15.79
2018-06-22T06:42:30.278Z,15.72
2018-06-22T06:43:36.244Z,15.65
2018-06-22T06:44:42.659Z,15.58
2018-06-22T06:45:48.597Z,15.59
2018-06-22T06:46:55.032Z,15.62
2018-06-22T06:48:00.972Z,15.61
2018-06-22T06:49:06.950Z,15.49
2018-06-22T06:50:12.910Z,15.50
2018-06-22T06:51:19.014Z,15.44
2018-06-22T06:52:24.932Z,15.39
2018-06-22T06:53:30.837Z,15.39
2018-06-22T06:54:36.812Z,15.46
2018-06-22T06:55:42.783Z,15.50
2018-06-22T06:56:48.773Z,15.50
2018-06-22T06:57:54.864Z,15.52
2018-06-22T06:59:00.806Z,15.56
2018-06-22T07:00:07.084Z,15.59
2018-06-22T07:01:13.102Z,15.58
2018-06-22T07:02:19.059Z,15.63
2018-06-22T07:03:25.040Z,15.63
2018-06-22T07:04:30.987Z,15.58
2018-06-22T07:05:37.005Z,15.45
2018-06-22T07:06:43.216Z,15.38
2018-06-22T07:07:49.171Z,15.29
2018-06-22T07:08:55.155Z,15.26
2018-06-22T07:10:01.095Z,15.22
2018-06-22T07:11:07.176Z,15.22
2018-06-22T07:12:13.154Z,15.20
2018-06-22T07:13:19.125Z,15.23
2018-06-22T07:14:25.175Z,15.25
2018-06-22T07:15:35.354Z,15.23
2018-06-22T07:16:41.321Z,15.22
2018-06-22T07:17:47.374Z,15.29
2018-06-22T07:18:53.343Z,15.29
2018-06-22T07:19:59.295Z,15.30
2018-06-22T07:21:05.279Z,15.20
2018-06-22T07:22:11.236Z,15.19
2018-06-22T07:23:17.227Z,15.24
2018-06-22T07:24:23.180Z,15.20
2018-06-22T07:25:29.265Z,15.12
2018-06-22T07:26:35.228Z,15.16
2018-06-22T07:27:41.200Z,15.14
2018-06-22T07:28:47.180Z,15.20
2018-06-22T07:29:53.131Z,15.22
2018-06-22T07:30:59.072Z,15.28
2018-06-22T07:32:05.011Z,15.29
2018-06-22T07:33:10.967Z,15.33
2018-06-22T07:34:16.910Z,15.41
2018-06-22T07:35:22.825Z,15.49
2018-06-22T07:36:28.787Z,15.54
2018-06-22T07:37:34.750Z,15.55
2018-06-22T07:38:40.711Z,15.52
2018-06-22T07:39:46.662Z,15.55
2018-06-22T07:40:52.685Z,15.53
2018-06-22T07:41:58.659Z,15.59
2018-06-22T07:43:04.806Z,15.67
2018-06-22T07:44:10.771Z,15.63
2018-06-22T07:45:16.710Z,15.64
2018-06-22T07:46:22.779Z,15.67
2018-06-22T07:47:28.528Z,15.84
2018-06-22T07:48:34.378Z,15.86
2018-06-22T07:49:40.682Z,15.80
2018-06-22T07:50:46.627Z,15.78
2018-06-22T07:51:52.563Z,15.76
2018-06-22T07:52:58.475Z,15.77
2018-06-22T07:54:04.427Z,15.76
2018-06-22T07:55:10.475Z,15.83
2018-06-22T07:56:16.832Z,15.91
2018-06-22T07:57:22.783Z,16.05
2018-06-22T07:58:28.706Z,16.11
2018-06-22T07:59:34.695Z,16.17
2018-06-22T08:00:40.641Z,16.30
2018-06-22T08:01:46.451Z,16.44
2018-06-22T08:02:52.379Z,16.57
2018-06-22T08:03:58.383Z,16.74
2018-06-22T08:05:04.353Z,16.89
2018-06-22T08:06:10.369Z,16.97
2018-06-22T08:07:16.495Z,17.13
2018-06-22T08:08:22.436Z,17.23
2018-06-22T08:09:28.591Z,17.33
2018-06-22T08:10:34.543Z,17.33
2018-06-22T08:11:40.478Z,17.41
2018-06-22T08:12:46.466Z,17.44
2018-06-22T08:13:52.426Z,17.43
2018-06-22T08:14:58.409Z,17.46
2018-06-22T08:16:04.366Z,17.52
2018-06-22T08:17:10.456Z,17.58
2018-06-22T08:18:16.452Z,17.70
2018-06-22T08:19:22.733Z,17.96
2018-06-22T08:20:28.678Z,18.27
2018-06-22T08:21:34.609Z,18.36
2018-06-22T08:22:40.555Z,18.50
2018-06-22T08:23:46.656Z,18.67
2018-06-22T08:24:52.629Z,18.77
2018-06-22T08:25:58.670Z,19.01
2018-06-22T08:27:05.146Z,19.14
2018-06-22T08:28:11.091Z,19.08
2018-06-22T08:29:17.085Z,19.01
2018-06-22T08:30:23.017Z,18.95
2018-06-22T08:31:28.999Z,18.96
2018-06-22T08:32:35.006Z,18.93
2018-06-22T08:33:40.996Z,18.80
2018-06-22T08:34:47.012Z,18.68
2018-06-22T08:35:53.185Z,18.69
2018-06-22T08:36:59.146Z,18.82
2018-06-22T08:38:05.824Z,18.86
2018-06-22T08:39:11.842Z,18.81
2018-06-22T08:40:17.864Z,18.76
2018-06-22T08:41:23.812Z,18.72
2018-06-22T08:42:29.789Z,18.70
2018-06-22T08:43:35.790Z,18.68
2018-06-22T08:44:42.004Z,18.76
2018-06-22T08:45:48.358Z,18.75
2018-06-22T08:46:54.550Z,18.73
2018-06-22T08:48:00.499Z,18.81
2018-06-22T08:49:06.845Z,18.61
2018-06-22T08:50:12.788Z,18.56
2018-06-22T08:51:18.798Z,18.51
2018-06-22T08:52:24.817Z,18.49
2018-06-22T08:53:30.791Z,18.56
2018-06-22T08:54:36.942Z,18.65
2018-06-22T08:55:42.964Z,18.95
2018-06-22T08:56:49.139Z,19.18
2018-06-22T08:57:55.129Z,19.32
2018-06-22T08:59:01.106Z,19.63
2018-06-22T09:00:07.290Z,19.88
2018-06-22T09:01:15.048Z,19.99
2018-06-22T09:02:19.409Z,20.09
2018-06-22T09:03:25.371Z,20.07
2018-06-22T09:04:31.354Z,20.10
2018-06-22T09:05:37.299Z,20.14
2018-06-22T09:06:43.283Z,20.00
2018-06-22T09:07:49.324Z,19.91
2018-06-22T09:08:55.306Z,19.89
2018-06-22T09:10:01.267Z,19.88
2018-06-22T09:11:07.241Z,19.99
2018-06-22T09:12:13.227Z,19.88
2018-06-22T09:13:19.271Z,19.69
2018-06-22T09:14:25.341Z,19.73
2018-06-22T09:15:31.475Z,19.71
2018-06-22T09:16:37.412Z,19.67
2018-06-22T09:18:44.135Z,19.42
2018-06-22T09:19:50.096Z,19.09
2018-06-22T09:20:56.070Z,19.00
2018-06-22T09:22:02.197Z,18.90
2018-06-22T09:23:08.607Z,18.77
2018-06-22T09:24:14.626Z,18.67
2018-06-22T09:25:20.617Z,18.63
2018-06-22T09:26:26.940Z,18.77
2018-06-22T09:27:32.882Z,18.78
2018-06-22T09:28:38.856Z,18.63
2018-06-22T09:29:44.876Z,18.72
2018-06-22T09:30:50.659Z,18.79
2018-06-22T09:31:56.903Z,18.93
2018-06-22T09:33:03.014Z,19.22
2018-06-22T09:34:08.926Z,19.62
2018-06-22T09:35:14.951Z,20.15
2018-06-22T09:36:20.875Z,20.64
2018-06-22T09:37:26.866Z,21.17
2018-06-22T09:38:33.344Z,21.83
2018-06-22T09:39:39.884Z,22.54
2018-06-22T09:40:45.882Z,23.23
2018-06-22T09:41:51.846Z,23.63
2018-06-22T09:42:57.800Z,23.78
2018-06-22T09:44:04.169Z,23.78
2018-06-22T09:45:10.210Z,23.59
2018-06-22T09:46:16.288Z,23.52
2018-06-22T09:47:22.235Z,23.25
2018-06-22T09:48:28.238Z,22.90
2018-06-22T09:49:34.720Z,22.58
2018-06-22T09:50:40.708Z,22.12
2018-06-22T09:51:46.660Z,21.82
2018-06-22T09:52:52.618Z,21.33
2018-06-22T09:53:58.648Z,21.08
2018-06-22T09:55:04.709Z,20.85
2018-06-22T09:56:10.875Z,20.42
2018-06-22T09:57:16.925Z,19.91
2018-06-22T09:58:23.126Z,19.65
2018-06-22T09:59:29.107Z,19.58
2018-06-22T10:00:35.139Z,19.50
2018-06-22T10:01:41.085Z,19.53
2018-06-22T10:02:47.759Z,19.48
2018-06-22T10:03:53.912Z,19.35
2018-06-22T10:04:59.882Z,19.25
2018-06-22T10:06:05.875Z,19.21
2018-06-22T10:07:11.876Z,19.22
2018-06-22T10:08:18.287Z,19.30
2018-06-22T10:09:24.418Z,19.37
2018-06-22T10:10:30.396Z,19.33
2018-06-22T10:11:36.376Z,19.29
2018-06-22T10:12:42.381Z,19.22
2018-06-22T10:13:48.549Z,19.09
2018-06-22T10:14:54.488Z,18.97
2018-06-22T10:16:00.441Z,18.96
2018-06-22T10:17:06.430Z,18.86
2018-06-22T10:18:12.428Z,18.71
2018-06-22T10:19:18.404Z,18.71
2018-06-22T10:20:24.387Z,18.72
2018-06-22T10:21:30.403Z,18.80
2018-06-22T10:22:36.421Z,18.99
2018-06-22T10:23:42.378Z,19.11
2018-06-22T10:24:48.331Z,19.20
2018-06-22T10:25:54.298Z,19.34
2018-06-22T10:27:00.267Z,19.43
2018-06-22T10:28:06.870Z,19.55
2018-06-22T10:29:12.848Z,19.64
2018-06-22T10:30:18.646Z,19.69
2018-06-22T10:31:24.712Z,19.84
2018-06-22T10:32:30.709Z,19.88
2018-06-22T10:33:38.584Z,19.91
2018-06-22T10:34:44.602Z,19.89
2018-06-22T10:35:52.869Z,19.92
2018-06-22T10:36:59.138Z,19.96
2018-06-22T10:38:05.160Z,19.93
2018-06-22T10:39:12.993Z,19.87
2018-06-22T10:40:19.898Z,19.84
2018-06-22T10:41:25.947Z,19.78
2018-06-22T10:42:31.989Z,19.82
2018-06-22T10:43:39.656Z,19.90
2018-06-22T10:44:45.739Z,19.93
2018-06-22T10:45:51.845Z,19.94
2018-06-22T10:46:58.237Z,20.00
2018-06-22T10:48:04.596Z,20.08
2018-06-22T10:49:10.647Z,20.12
2018-06-22T10:50:16.711Z,20.19
2018-06-22T10:51:22.715Z,20.15
2018-06-22T10:52:28.730Z,20.07
2018-06-22T10:53:35.167Z,20.02
2018-06-22T10:54:41.165Z,20.08
2018-06-22T10:55:47.213Z,20.07
2018-06-22T10:56:53.306Z,20.03
2018-06-22T10:57:59.362Z,19.99
2018-06-22T10:59:05.643Z,19.88
2018-06-22T11:00:11.700Z,19.81
2018-06-22T11:01:17.845Z,19.75
2018-06-22T11:02:23.811Z,19.69
2018-06-22T11:03:30.163Z,19.62
2018-06-22T11:04:36.146Z,19.62
2018-06-22T11:05:42.225Z,19.60
2018-06-22T11:06:48.480Z,19.58
2018-06-22T11:07:54.625Z,19.62
2018-06-22T11:09:00.636Z,19.62
2018-06-22T11:10:06.652Z,19.65
2018-06-22T11:11:12.844Z,19.67
2018-06-22T11:12:18.839Z,19.56
2018-06-22T11:13:24.503Z,19.56
2018-06-22T11:14:30.862Z,19.55
2018-06-22T11:15:38.547Z,19.56
2018-06-22T11:16:44.559Z,19.53
2018-06-22T11:17:50.765Z,19.50
2018-06-22T11:18:57.096Z,19.54
2018-06-22T11:20:03.118Z,19.52
2018-06-22T11:21:09.211Z,19.50
2018-06-22T11:22:15.580Z,19.52
2018-06-22T11:23:21.920Z,19.59
2018-06-22T11:24:28.214Z,19.69
2018-06-22T11:25:34.966Z,19.76
2018-06-22T11:26:41.836Z,19.93
2018-06-22T11:27:48.905Z,20.06
2018-06-22T11:28:54.996Z,20.08
2018-06-22T11:30:01.823Z,20.20
2018-06-22T11:31:08.595Z,20.27
2018-06-22T11:32:14.798Z,20.39
2018-06-22T11:33:21.328Z,20.43
2018-06-22T11:34:27.474Z,20.66
2018-06-22T11:35:33.546Z,20.76
2018-06-22T11:36:39.511Z,20.90
2018-06-22T11:37:45.471Z,20.93
2018-06-22T11:38:51.459Z,21.03
2018-06-22T11:39:57.493Z,21.15
2018-06-22T11:41:03.466Z,21.19
2018-06-22T11:42:09.184Z,21.22
2018-06-22T11:43:15.294Z,21.23
2018-06-22T11:44:21.215Z,21.16
2018-06-22T11:45:27.204Z,21.07
2018-06-22T11:46:33.173Z,21.09
2018-06-22T11:47:39.170Z,21.04
2018-06-22T11:48:45.180Z,21.03
2018-06-22T11:49:51.287Z,21.02
2018-06-22T11:50:57.389Z,20.97
2018-06-22T11:52:03.913Z,21.01
2018-06-22T11:53:09.982Z,21.00
2018-06-22T11:54:16.270Z,20.92
2018-06-22T11:55:23.256Z,20.92
2018-06-22T11:56:29.326Z,20.85
2018-06-22T11:57:35.491Z,20.81
2018-06-22T11:58:41.716Z,20.82
2018-06-22T11:59:47.921Z,20.76
2018-06-22T12:00:54.051Z,20.66
2018-06-22T12:02:01.120Z,20.60
2018-06-22T12:03:08.284Z,20.59
2018-06-22T12:04:14.514Z,20.54
2018-06-22T12:05:20.712Z,20.46
2018-06-22T12:06:26.694Z,20.41
2018-06-22T12:07:33.061Z,20.32
2018-06-22T12:08:39.005Z,20.27
2018-06-22T12:09:44.982Z,20.23
2018-06-22T12:10:50.943Z,20.24
2018-06-22T12:11:56.929Z,20.27
2018-06-22T12:13:02.920Z,20.30
2018-06-22T12:14:08.937Z,20.27
2018-06-22T12:15:15.169Z,20.27
2018-06-22T12:16:21.419Z,20.26
2018-06-22T12:17:27.411Z,20.23
2018-06-22T12:18:34.630Z,20.17
2018-06-22T12:19:40.645Z,20.13
2018-06-22T12:20:46.625Z,20.17
2018-06-22T12:21:53.658Z,20.17
2018-06-22T12:23:00.464Z,20.25
2018-06-22T12:24:06.883Z,20.35
2018-06-22T12:25:12.867Z,20.44
2018-06-22T12:26:19.519Z,20.53
2018-06-22T12:27:25.563Z,20.67
2018-06-22T12:28:31.609Z,20.79
2018-06-22T12:29:37.625Z,20.88
2018-06-22T12:30:45.451Z,20.88
2018-06-22T12:31:52.944Z,20.90
2018-06-22T12:33:00.182Z,20.85
2018-06-22T12:34:08.116Z,20.84
2018-06-22T12:35:14.438Z,20.77
2018-06-22T12:36:22.087Z,20.70
2018-06-22T12:37:29.570Z,20.55
2018-06-22T12:38:37.571Z,20.38
2018-06-22T12:39:44.615Z,20.37
2018-06-22T12:40:51.429Z,20.37
2018-06-22T12:41:57.948Z,20.37
2018-06-22T12:43:04.340Z,20.36
2018-06-22T12:44:11.060Z,20.40
2018-06-22T12:45:20.682Z,20.46
2018-06-22T12:46:27.359Z,20.54
2018-06-22T12:47:34.457Z,20.55
2018-06-22T12:48:41.183Z,20.56
2018-06-22T12:49:47.684Z,20.57
2018-06-22T12:50:55.316Z,20.61
2018-06-22T12:52:01.949Z,20.60
2018-06-22T12:53:08.522Z,20.65
2018-06-22T12:54:15.744Z,20.66
2018-06-22T12:55:22.253Z,20.68
2018-06-22T12:56:28.380Z,20.74
2018-06-22T12:57:34.483Z,20.80
2018-06-22T12:58:41.399Z,20.89
2018-06-22T12:59:47.583Z,20.93
2018-06-22T13:00:54.890Z,20.95
2018-06-22T13:02:00.999Z,21.02
2018-06-22T13:03:07.349Z,21.07
2018-06-22T13:04:13.873Z,21.15
2018-06-22T13:05:20.239Z,21.25
2018-06-22T13:06:26.425Z,21.26
2018-06-22T13:07:34.492Z,21.31
2018-06-22T13:08:41.049Z,21.36
2018-06-22T13:09:47.442Z,21.37
2018-06-22T13:10:53.467Z,21.49
2018-06-22T13:12:00.095Z,21.57
2018-06-22T13:13:06.345Z,21.59
2018-06-22T13:14:13.001Z,21.55
2018-06-22T13:15:19.629Z,21.48
2018-06-22T13:16:25.681Z,21.46
2018-06-22T13:17:31.840Z,21.38
2018-06-22T13:18:38.708Z,21.30
2018-06-22T13:19:45.150Z,21.22
2018-06-22T13:20:52.137Z,21.13
2018-06-22T13:21:58.570Z,21.13
2018-06-22T13:23:05.717Z,21.10
2018-06-22T13:24:13.424Z,21.04
2018-06-22T13:25:21.590Z,21.00
2018-06-22T13:26:28.672Z,20.95
2018-06-22T13:27:35.833Z,20.89
2018-06-22T13:28:43.770Z,20.82
2018-06-22T13:29:50.517Z,20.80
2018-06-22T13:30:57.953Z,20.81
2018-06-22T13:32:05.642Z,20.85
2018-06-22T13:33:16.879Z,20.92
2018-06-22T13:34:24.820Z,20.94
2018-06-22T13:35:32.279Z,21.03
2018-06-22T13:36:39.015Z,21.12
2018-06-22T13:37:45.977Z,21.22
2018-06-22T13:38:54.303Z,21.24
2018-06-22T13:40:01.135Z,21.35
2018-06-22T13:41:08.300Z,21.46
2018-06-22T13:42:15.177Z,21.56
2018-06-22T13:43:22.448Z,21.60
2018-06-22T13:44:30.220Z,21.64
2018-06-22T13:45:37.924Z,21.61
2018-06-22T13:46:45.616Z,21.57
2018-06-22T13:47:52.394Z,21.50
2018-06-22T13:49:00.675Z,21.46
2018-06-22T13:50:08.177Z,21.49
2018-06-22T13:51:15.006Z,21.57
2018-06-22T13:52:22.247Z,21.62
2018-06-22T13:53:29.286Z,21.69
2018-06-22T13:54:35.942Z,21.73
2018-06-22T13:55:43.679Z,21.79
2018-06-22T13:56:51.980Z,21.86
2018-06-22T13:57:59.714Z,21.93
2018-06-22T13:59:06.922Z,22.06
2018-06-22T14:00:14.181Z,22.18
2018-06-22T14:01:21.131Z,22.27
2018-06-22T14:02:28.488Z,22.36
2018-06-22T14:03:36.065Z,22.45
2018-06-22T14:04:47.604Z,22.61
2018-06-22T14:06:02.670Z,22.71
2018-06-22T14:07:09.227Z,22.77
2018-06-22T14:08:16.005Z,22.84
2018-06-22T14:09:24.054Z,22.90
2018-06-22T14:10:30.816Z,22.96
2018-06-22T14:11:38.296Z,22.98
2018-06-22T14:12:44.935Z,22.94
2018-06-22T14:13:51.723Z,22.94